sensor_id;sensor_type;location;lat;lon;timestamp;P1;durP1;ratioP1;P2;durP2;ratioP2
7571;SDS011;3827;49.928;8.548;2023-04-03T00:00:31;2.30;;;2.05;;
7571;SDS011;3827;49.928;8.548;2023-04-03T00:02:58;2.75;;;2.05;;
7571;SDS011;3827;49.928;8.548;2023-04-03T00:05:26;1.85;;;1.75;;
7571;SDS011;3827;49.928;8.548;2023-04-03T00:07:53;2.03;;;1.80;;
7571;SDS011;3827;49.928;8.548;2023-04-03T00:10:20;1.80;;;1.70;;
7571;SDS011;3827;49.928;8.548;2023-04-03T00:12:47;2.42;;;1.70;;
7571;SDS011;3827;49.928;8.548;2023-04-03T00:15:14;2.17;;;1.70;;
7571;SDS011;3827;49.928;8.548;2023-04-03T00:17:41;1.95;;;1.60;;
7571;SDS011;3827;49.928;8.548;2023-04-03T00:20:08;1.88;;;1.70;;
7571;SDS011;3827;49.928;8.548;2023-04-03T00:22:36;2.35;;;1.60;;
7571;SDS011;3827;49.928;8.548;2023-04-03T00:25:03;2.50;;;1.85;;
7571;SDS011;3827;49.928;8.548;2023-04-03T00:27:30;1.60;;;1.50;;
7571;SDS011;3827;49.928;8.548;2023-04-03T00:29:57;2.97;;;1.63;;
7571;SDS011;3827;49.928;8.548;2023-04-03T00:32:24;2.10;;;1.60;;
7571;SDS011;3827;49.928;8.548;2023-04-03T00:34:51;2.33;;;1.80;;
7571;SDS011;3827;49.928;8.548;2023-04-03T00:37:18;2.00;;;1.80;;
7571;SDS011;3827;49.928;8.548;2023-04-03T00:39:46;1.60;;;1.50;;
7571;SDS011;3827;49.928;8.548;2023-04-03T00:42:12;2.03;;;1.50;;
7571;SDS011;3827;49.928;8.548;2023-04-03T00:47:43;1.88;;;1.75;;
7571;SDS011;3827;49.928;8.548;2023-04-03T00:50:11;1.73;;;1.63;;
7571;SDS011;3827;49.928;8.548;2023-04-03T00:52:38;1.90;;;1.70;;
7571;SDS011;3827;49.928;8.548;2023-04-03T00:55:08;1.33;;;1.23;;
7571;SDS011;3827;49.928;8.548;2023-04-03T00:57:35;2.08;;;1.83;;
7571;SDS011;3827;49.928;8.548;2023-04-03T01:00:05;2.40;;;1.67;;
7571;SDS011;3827;49.928;8.548;2023-04-03T01:02:35;2.33;;;1.80;;
7571;SDS011;3827;49.928;8.548;2023-04-03T01:05:03;1.92;;;1.52;;
7571;SDS011;3827;49.928;8.548;2023-04-03T01:07:31;2.08;;;1.63;;
7571;SDS011;3827;49.928;8.548;2023-04-03T01:09:59;2.17;;;1.77;;
7571;SDS011;3827;49.928;8.548;2023-04-03T01:12:30;2.80;;;2.10;;
7571;SDS011;3827;49.928;8.548;2023-04-03T01:14:59;1.70;;;1.60;;
7571;SDS011;3827;49.928;8.548;2023-04-03T01:17:28;2.37;;;1.73;;
7571;SDS011;3827;49.928;8.548;2023-04-03T01:20:02;2.25;;;1.65;;
7571;SDS011;3827;49.928;8.548;2023-04-03T01:23:06;1.90;;;1.67;;
7571;SDS011;3827;49.928;8.548;2023-04-03T01:25:49;2.25;;;1.98;;
7571;SDS011;3827;49.928;8.548;2023-04-03T01:28:21;2.22;;;1.75;;
7571;SDS011;3827;49.928;8.548;2023-04-03T01:30:50;2.22;;;1.60;;
7571;SDS011;3827;49.928;8.548;2023-04-03T01:33:23;3.05;;;1.88;;
7571;SDS011;3827;49.928;8.548;2023-04-03T01:35:50;2.10;;;1.70;;
7571;SDS011;3827;49.928;8.548;2023-04-03T01:38:17;2.38;;;1.70;;
7571;SDS011;3827;49.928;8.548;2023-04-03T01:40:44;2.47;;;1.70;;
7571;SDS011;3827;49.928;8.548;2023-04-03T01:43:11;1.65;;;1.50;;
7571;SDS011;3827;49.928;8.548;2023-04-03T01:45:37;2.50;;;1.60;;
7571;SDS011;3827;49.928;8.548;2023-04-03T01:48:04;1.90;;;1.70;;
7571;SDS011;3827;49.928;8.548;2023-04-03T01:50:33;1.95;;;1.65;;
7571;SDS011;3827;49.928;8.548;2023-04-03T01:53:00;1.83;;;1.58;;
7571;SDS011;3827;49.928;8.548;2023-04-03T01:55:26;1.88;;;1.77;;
7571;SDS011;3827;49.928;8.548;2023-04-03T01:57:53;2.38;;;1.80;;
7571;SDS011;3827;49.928;8.548;2023-04-03T02:00:20;2.28;;;2.00;;
7571;SDS011;3827;49.928;8.548;2023-04-03T02:02:47;2.70;;;2.05;;
7571;SDS011;3827;49.928;8.548;2023-04-03T02:05:14;2.20;;;1.70;;
7571;SDS011;3827;49.928;8.548;2023-04-03T02:07:42;2.88;;;1.73;;
7571;SDS011;3827;49.928;8.548;2023-04-03T02:10:09;2.40;;;1.90;;
7571;SDS011;3827;49.928;8.548;2023-04-03T02:12:36;2.30;;;1.75;;
7571;SDS011;3827;49.928;8.548;2023-04-03T02:15:03;3.10;;;1.90;;
7571;SDS011;3827;49.928;8.548;2023-04-03T02:17:31;2.00;;;1.70;;
7571;SDS011;3827;49.928;8.548;2023-04-03T02:19:57;2.00;;;1.53;;
7571;SDS011;3827;49.928;8.548;2023-04-03T02:22:24;2.00;;;1.80;;
7571;SDS011;3827;49.928;8.548;2023-04-03T02:24:52;2.63;;;1.80;;
7571;SDS011;3827;49.928;8.548;2023-04-03T02:27:19;2.20;;;1.92;;
7571;SDS011;3827;49.928;8.548;2023-04-03T02:29:46;2.17;;;1.60;;
7571;SDS011;3827;49.928;8.548;2023-04-03T02:32:13;2.05;;;1.83;;
7571;SDS011;3827;49.928;8.548;2023-04-03T02:34:40;2.22;;;1.70;;
7571;SDS011;3827;49.928;8.548;2023-04-03T02:37:06;2.60;;;1.83;;
7571;SDS011;3827;49.928;8.548;2023-04-03T02:39:33;2.55;;;1.77;;
7571;SDS011;3827;49.928;8.548;2023-04-03T02:42:02;2.67;;;1.80;;
7571;SDS011;3827;49.928;8.548;2023-04-03T02:44:29;3.10;;;1.80;;
7571;SDS011;3827;49.928;8.548;2023-04-03T02:46:55;2.40;;;1.73;;
7571;SDS011;3827;49.928;8.548;2023-04-03T02:49:22;2.90;;;1.80;;
7571;SDS011;3827;49.928;8.548;2023-04-03T02:51:49;3.08;;;1.90;;
7571;SDS011;3827;49.928;8.548;2023-04-03T02:54:16;2.20;;;1.75;;
7571;SDS011;3827;49.928;8.548;2023-04-03T02:56:43;1.83;;;1.65;;
7571;SDS011;3827;49.928;8.548;2023-04-03T02:59:11;2.85;;;2.00;;
7571;SDS011;3827;49.928;8.548;2023-04-03T03:01:39;2.60;;;1.80;;
7571;SDS011;3827;49.928;8.548;2023-04-03T03:04:06;2.72;;;1.42;;
7571;SDS011;3827;49.928;8.548;2023-04-03T03:06:32;3.90;;;2.00;;
7571;SDS011;3827;49.928;8.548;2023-04-03T03:08:59;2.67;;;1.50;;
7571;SDS011;3827;49.928;8.548;2023-04-03T03:11:26;2.83;;;2.00;;
7571;SDS011;3827;49.928;8.548;2023-04-03T03:13:54;4.40;;;1.80;;
7571;SDS011;3827;49.928;8.548;2023-04-03T03:16:22;2.30;;;1.50;;
7571;SDS011;3827;49.928;8.548;2023-04-03T03:18:49;2.47;;;1.73;;
7571;SDS011;3827;49.928;8.548;2023-04-03T03:21:15;1.58;;;1.40;;
7571;SDS011;3827;49.928;8.548;2023-04-03T03:23:42;2.85;;;1.85;;
7571;SDS011;3827;49.928;8.548;2023-04-03T03:26:09;2.10;;;1.88;;
7571;SDS011;3827;49.928;8.548;2023-04-03T03:28:37;2.33;;;1.58;;
7571;SDS011;3827;49.928;8.548;2023-04-03T03:31:05;2.28;;;1.63;;
7571;SDS011;3827;49.928;8.548;2023-04-03T03:33:35;3.58;;;1.88;;
7571;SDS011;3827;49.928;8.548;2023-04-03T03:36:01;2.80;;;1.85;;
7571;SDS011;3827;49.928;8.548;2023-04-03T03:38:29;2.72;;;1.83;;
7571;SDS011;3827;49.928;8.548;2023-04-03T03:40:56;2.30;;;1.83;;
7571;SDS011;3827;49.928;8.548;2023-04-03T03:43:22;1.85;;;1.50;;
7571;SDS011;3827;49.928;8.548;2023-04-03T03:45:50;2.80;;;1.60;;
7571;SDS011;3827;49.928;8.548;2023-04-03T03:48:17;3.40;;;1.85;;
7571;SDS011;3827;49.928;8.548;2023-04-03T03:50:46;3.85;;;1.95;;
7571;SDS011;3827;49.928;8.548;2023-04-03T03:53:12;4.05;;;2.67;;
7571;SDS011;3827;49.928;8.548;2023-04-03T03:55:39;6.05;;;4.28;;
7571;SDS011;3827;49.928;8.548;2023-04-03T03:58:06;4.05;;;2.60;;
7571;SDS011;3827;49.928;8.548;2023-04-03T04:00:33;3.03;;;1.88;;
7571;SDS011;3827;49.928;8.548;2023-04-03T04:03:00;3.80;;;1.83;;
7571;SDS011;3827;49.928;8.548;2023-04-03T04:05:27;2.95;;;1.77;;
7571;SDS011;3827;49.928;8.548;2023-04-03T04:07:55;2.80;;;1.70;;
7571;SDS011;3827;49.928;8.548;2023-04-03T04:10:22;2.92;;;1.80;;
7571;SDS011;3827;49.928;8.548;2023-04-03T04:12:49;3.30;;;1.70;;
7571;SDS011;3827;49.928;8.548;2023-04-03T04:15:16;3.15;;;1.67;;
7571;SDS011;3827;49.928;8.548;2023-04-03T04:17:43;2.92;;;1.90;;
7571;SDS011;3827;49.928;8.548;2023-04-03T04:20:10;2.88;;;1.45;;
7571;SDS011;3827;49.928;8.548;2023-04-03T04:22:37;4.90;;;2.05;;
7571;SDS011;3827;49.928;8.548;2023-04-03T04:25:06;2.58;;;1.80;;
7571;SDS011;3827;49.928;8.548;2023-04-03T04:27:33;3.25;;;1.80;;
7571;SDS011;3827;49.928;8.548;2023-04-03T04:30:00;2.70;;;1.70;;
7571;SDS011;3827;49.928;8.548;2023-04-03T04:32:27;3.70;;;1.60;;
7571;SDS011;3827;49.928;8.548;2023-04-03T04:34:54;3.75;;;2.00;;
7571;SDS011;3827;49.928;8.548;2023-04-03T04:37:21;3.22;;;1.75;;
7571;SDS011;3827;49.928;8.548;2023-04-03T04:39:48;3.40;;;1.70;;
7571;SDS011;3827;49.928;8.548;2023-04-03T04:42:16;4.40;;;1.90;;
7571;SDS011;3827;49.928;8.548;2023-04-03T04:44:43;2.95;;;1.60;;
7571;SDS011;3827;49.928;8.548;2023-04-03T04:47:09;2.90;;;1.60;;
7571;SDS011;3827;49.928;8.548;2023-04-03T04:49:36;3.33;;;1.75;;
7571;SDS011;3827;49.928;8.548;2023-04-03T04:52:03;4.03;;;1.67;;
7571;SDS011;3827;49.928;8.548;2023-04-03T04:54:31;3.72;;;1.50;;
7571;SDS011;3827;49.928;8.548;2023-04-03T04:56:58;2.40;;;1.65;;
7571;SDS011;3827;49.928;8.548;2023-04-03T04:59:26;2.83;;;1.70;;
7571;SDS011;3827;49.928;8.548;2023-04-03T05:01:53;2.60;;;1.60;;
7571;SDS011;3827;49.928;8.548;2023-04-03T05:04:20;3.28;;;1.60;;
7571;SDS011;3827;49.928;8.548;2023-04-03T05:06:46;3.65;;;1.80;;
7571;SDS011;3827;49.928;8.548;2023-04-03T05:09:13;2.90;;;1.60;;
7571;SDS011;3827;49.928;8.548;2023-04-03T05:11:40;3.55;;;1.60;;
7571;SDS011;3827;49.928;8.548;2023-04-03T05:14:08;3.25;;;1.65;;
7571;SDS011;3827;49.928;8.548;2023-04-03T05:16:36;3.95;;;1.63;;
7571;SDS011;3827;49.928;8.548;2023-04-03T05:19:03;4.22;;;2.10;;
7571;SDS011;3827;49.928;8.548;2023-04-03T05:21:30;2.58;;;1.58;;
7571;SDS011;3827;49.928;8.548;2023-04-03T05:23:58;3.80;;;1.73;;
7571;SDS011;3827;49.928;8.548;2023-04-03T05:26:27;3.40;;;1.60;;
7571;SDS011;3827;49.928;8.548;2023-04-03T05:28:54;4.43;;;1.85;;
7571;SDS011;3827;49.928;8.548;2023-04-03T05:31:21;2.63;;;1.60;;
7571;SDS011;3827;49.928;8.548;2023-04-03T05:33:49;3.80;;;1.80;;
7571;SDS011;3827;49.928;8.548;2023-04-03T05:36:16;2.80;;;1.55;;
7571;SDS011;3827;49.928;8.548;2023-04-03T05:38:43;4.85;;;1.80;;
7571;SDS011;3827;49.928;8.548;2023-04-03T05:41:10;4.22;;;1.85;;
7571;SDS011;3827;49.928;8.548;2023-04-03T05:43:37;4.07;;;2.00;;
7571;SDS011;3827;49.928;8.548;2023-04-03T05:46:04;2.87;;;1.60;;
7571;SDS011;3827;49.928;8.548;2023-04-03T05:48:36;3.35;;;1.60;;
7571;SDS011;3827;49.928;8.548;2023-04-03T05:51:04;4.47;;;1.88;;
7571;SDS011;3827;49.928;8.548;2023-04-03T05:53:33;3.72;;;1.95;;
7571;SDS011;3827;49.928;8.548;2023-04-03T05:56:02;3.80;;;1.83;;
7571;SDS011;3827;49.928;8.548;2023-04-03T05:58:28;3.35;;;1.83;;
7571;SDS011;3827;49.928;8.548;2023-04-03T06:00:55;4.10;;;2.00;;
7571;SDS011;3827;49.928;8.548;2023-04-03T06:03:22;4.15;;;1.80;;
7571;SDS011;3827;49.928;8.548;2023-04-03T06:05:49;5.72;;;1.90;;
7571;SDS011;3827;49.928;8.548;2023-04-03T06:08:17;3.58;;;1.70;;
7571;SDS011;3827;49.928;8.548;2023-04-03T06:10:46;2.60;;;1.75;;
7571;SDS011;3827;49.928;8.548;2023-04-03T06:13:13;2.85;;;1.90;;
7571;SDS011;3827;49.928;8.548;2023-04-03T06:15:40;3.25;;;2.05;;
7571;SDS011;3827;49.928;8.548;2023-04-03T06:18:06;4.47;;;2.00;;
7571;SDS011;3827;49.928;8.548;2023-04-03T06:20:34;3.35;;;1.90;;
7571;SDS011;3827;49.928;8.548;2023-04-03T06:23:00;3.38;;;2.00;;
7571;SDS011;3827;49.928;8.548;2023-04-03T06:25:29;3.30;;;1.83;;
7571;SDS011;3827;49.928;8.548;2023-04-03T06:27:59;4.07;;;2.10;;
7571;SDS011;3827;49.928;8.548;2023-04-03T06:30:27;3.78;;;2.05;;
7571;SDS011;3827;49.928;8.548;2023-04-03T06:32:53;3.47;;;2.00;;
7571;SDS011;3827;49.928;8.548;2023-04-03T06:35:21;4.35;;;1.95;;
7571;SDS011;3827;49.928;8.548;2023-04-03T06:37:48;6.15;;;2.40;;
7571;SDS011;3827;49.928;8.548;2023-04-03T06:40:15;3.72;;;1.92;;
7571;SDS011;3827;49.928;8.548;2023-04-03T06:42:48;3.97;;;2.28;;
7571;SDS011;3827;49.928;8.548;2023-04-03T06:45:15;3.63;;;2.28;;
7571;SDS011;3827;49.928;8.548;2023-04-03T06:47:42;6.00;;;1.90;;
7571;SDS011;3827;49.928;8.548;2023-04-03T06:50:09;3.35;;;2.03;;
7571;SDS011;3827;49.928;8.548;2023-04-03T06:52:39;4.05;;;2.30;;
7571;SDS011;3827;49.928;8.548;2023-04-03T06:55:06;5.00;;;2.10;;
7571;SDS011;3827;49.928;8.548;2023-04-03T06:57:34;3.78;;;1.92;;
7571;SDS011;3827;49.928;8.548;2023-04-03T07:00:02;3.70;;;2.17;;
7571;SDS011;3827;49.928;8.548;2023-04-03T07:02:30;4.28;;;2.08;;
7571;SDS011;3827;49.928;8.548;2023-04-03T07:04:57;4.63;;;2.22;;
7571;SDS011;3827;49.928;8.548;2023-04-03T07:07:24;2.92;;;2.10;;
7571;SDS011;3827;49.928;8.548;2023-04-03T07:09:51;5.25;;;2.20;;
7571;SDS011;3827;49.928;8.548;2023-04-03T07:12:18;3.75;;;2.17;;
7571;SDS011;3827;49.928;8.548;2023-04-03T07:14:45;3.17;;;2.00;;
7571;SDS011;3827;49.928;8.548;2023-04-03T07:17:13;3.75;;;2.08;;
7571;SDS011;3827;49.928;8.548;2023-04-03T07:19:40;3.03;;;2.08;;
7571;SDS011;3827;49.928;8.548;2023-04-03T07:22:07;4.60;;;1.98;;
7571;SDS011;3827;49.928;8.548;2023-04-03T07:24:36;3.40;;;1.90;;
7571;SDS011;3827;49.928;8.548;2023-04-03T07:27:03;3.85;;;2.20;;
7571;SDS011;3827;49.928;8.548;2023-04-03T07:29:30;3.85;;;2.08;;
7571;SDS011;3827;49.928;8.548;2023-04-03T07:31:57;3.67;;;1.80;;
7571;SDS011;3827;49.928;8.548;2023-04-03T07:34:25;4.70;;;2.20;;
7571;SDS011;3827;49.928;8.548;2023-04-03T07:36:52;4.13;;;2.17;;
7571;SDS011;3827;49.928;8.548;2023-04-03T07:39:19;5.05;;;2.22;;
7571;SDS011;3827;49.928;8.548;2023-04-03T07:41:46;4.70;;;2.30;;
7571;SDS011;3827;49.928;8.548;2023-04-03T07:44:13;3.72;;;2.17;;
7571;SDS011;3827;49.928;8.548;2023-04-03T07:46:40;3.75;;;1.85;;
7571;SDS011;3827;49.928;8.548;2023-04-03T07:49:07;3.90;;;2.13;;
7571;SDS011;3827;49.928;8.548;2023-04-03T07:51:35;3.10;;;1.80;;
7571;SDS011;3827;49.928;8.548;2023-04-03T07:54:03;3.42;;;2.03;;
7571;SDS011;3827;49.928;8.548;2023-04-03T07:56:30;3.60;;;1.88;;
7571;SDS011;3827;49.928;8.548;2023-04-03T07:58:57;3.58;;;1.80;;
7571;SDS011;3827;49.928;8.548;2023-04-03T08:01:23;3.17;;;1.90;;
7571;SDS011;3827;49.928;8.548;2023-04-03T08:03:50;3.67;;;2.00;;
7571;SDS011;3827;49.928;8.548;2023-04-03T08:06:17;3.30;;;1.80;;
7571;SDS011;3827;49.928;8.548;2023-04-03T08:08:46;3.83;;;1.63;;
7571;SDS011;3827;49.928;8.548;2023-04-03T08:11:12;5.00;;;2.23;;
7571;SDS011;3827;49.928;8.548;2023-04-03T08:13:39;3.95;;;2.05;;
7571;SDS011;3827;49.928;8.548;2023-04-03T08:16:07;3.78;;;2.20;;
7571;SDS011;3827;49.928;8.548;2023-04-03T08:18:35;3.78;;;2.10;;
7571;SDS011;3827;49.928;8.548;2023-04-03T08:21:04;3.97;;;1.92;;
7571;SDS011;3827;49.928;8.548;2023-04-03T08:23:32;3.85;;;2.00;;
7571;SDS011;3827;49.928;8.548;2023-04-03T08:26:00;3.67;;;2.10;;
7571;SDS011;3827;49.928;8.548;2023-04-03T08:28:32;3.38;;;2.00;;
7571;SDS011;3827;49.928;8.548;2023-04-03T08:31:02;4.85;;;2.03;;
7571;SDS011;3827;49.928;8.548;2023-04-03T08:33:29;3.80;;;2.00;;
7571;SDS011;3827;49.928;8.548;2023-04-03T08:35:56;4.28;;;2.10;;
7571;SDS011;3827;49.928;8.548;2023-04-03T08:38:23;3.05;;;2.00;;
7571;SDS011;3827;49.928;8.548;2023-04-03T08:41:00;3.85;;;1.70;;
7571;SDS011;3827;49.928;8.548;2023-04-03T08:43:31;3.40;;;2.05;;
7571;SDS011;3827;49.928;8.548;2023-04-03T08:46:08;3.03;;;1.63;;
7571;SDS011;3827;49.928;8.548;2023-04-03T08:48:40;3.97;;;2.00;;
7571;SDS011;3827;49.928;8.548;2023-04-03T08:51:10;3.42;;;2.05;;
7571;SDS011;3827;49.928;8.548;2023-04-03T08:53:41;2.83;;;1.70;;
7571;SDS011;3827;49.928;8.548;2023-04-03T08:56:13;3.42;;;1.88;;
7571;SDS011;3827;49.928;8.548;2023-04-03T08:58:45;3.58;;;1.80;;
7571;SDS011;3827;49.928;8.548;2023-04-03T09:01:19;3.55;;;1.83;;
7571;SDS011;3827;49.928;8.548;2023-04-03T09:03:48;4.35;;;1.73;;
7571;SDS011;3827;49.928;8.548;2023-04-03T09:06:16;3.42;;;1.77;;
7571;SDS011;3827;49.928;8.548;2023-04-03T09:08:49;3.17;;;1.58;;
7571;SDS011;3827;49.928;8.548;2023-04-03T09:11:25;2.17;;;1.48;;
7571;SDS011;3827;49.928;8.548;2023-04-03T09:13:57;4.75;;;1.60;;
7571;SDS011;3827;49.928;8.548;2023-04-03T09:16:33;3.33;;;1.60;;
7571;SDS011;3827;49.928;8.548;2023-04-03T09:19:07;2.95;;;1.60;;
7571;SDS011;3827;49.928;8.548;2023-04-03T09:21:41;2.65;;;1.45;;
7571;SDS011;3827;49.928;8.548;2023-04-03T09:24:09;4.37;;;1.60;;
7571;SDS011;3827;49.928;8.548;2023-04-03T09:26:40;3.55;;;1.80;;
7571;SDS011;3827;49.928;8.548;2023-04-03T09:29:13;4.07;;;1.75;;
7571;SDS011;3827;49.928;8.548;2023-04-03T09:31:44;3.05;;;1.65;;
7571;SDS011;3827;49.928;8.548;2023-04-03T09:34:15;2.30;;;1.60;;
7571;SDS011;3827;49.928;8.548;2023-04-03T09:36:49;3.25;;;1.67;;
7571;SDS011;3827;49.928;8.548;2023-04-03T09:39:18;2.42;;;1.50;;
7571;SDS011;3827;49.928;8.548;2023-04-03T09:41:58;2.72;;;1.67;;
7571;SDS011;3827;49.928;8.548;2023-04-03T09:44:29;3.70;;;1.70;;
7571;SDS011;3827;49.928;8.548;2023-04-03T09:46:57;3.67;;;1.50;;
7571;SDS011;3827;49.928;8.548;2023-04-03T09:49:24;3.28;;;1.60;;
7571;SDS011;3827;49.928;8.548;2023-04-03T09:51:51;3.00;;;1.42;;
7571;SDS011;3827;49.928;8.548;2023-04-03T09:54:32;2.33;;;1.50;;
7571;SDS011;3827;49.928;8.548;2023-04-03T09:57:06;4.18;;;1.70;;
7571;SDS011;3827;49.928;8.548;2023-04-03T09:59:43;3.65;;;1.50;;
7571;SDS011;3827;49.928;8.548;2023-04-03T10:02:20;3.60;;;1.83;;
7571;SDS011;3827;49.928;8.548;2023-04-03T10:04:56;2.65;;;1.50;;
7571;SDS011;3827;49.928;8.548;2023-04-03T10:07:28;2.35;;;1.50;;
7571;SDS011;3827;49.928;8.548;2023-04-03T10:09:57;3.37;;;1.60;;
7571;SDS011;3827;49.928;8.548;2023-04-03T10:12:27;3.17;;;1.70;;
7571;SDS011;3827;49.928;8.548;2023-04-03T10:14:55;1.80;;;1.40;;
7571;SDS011;3827;49.928;8.548;2023-04-03T10:17:26;3.87;;;1.50;;
7571;SDS011;3827;49.928;8.548;2023-04-03T10:20:07;2.58;;;1.42;;
7571;SDS011;3827;49.928;8.548;2023-04-03T10:22:47;3.50;;;1.90;;
7571;SDS011;3827;49.928;8.548;2023-04-03T10:25:24;3.28;;;1.60;;
7571;SDS011;3827;49.928;8.548;2023-04-03T10:27:56;2.80;;;1.80;;
7571;SDS011;3827;49.928;8.548;2023-04-03T10:30:31;2.90;;;1.65;;
7571;SDS011;3827;49.928;8.548;2023-04-03T10:33:08;2.97;;;1.60;;
7571;SDS011;3827;49.928;8.548;2023-04-03T10:35:48;2.20;;;1.60;;
7571;SDS011;3827;49.928;8.548;2023-04-03T10:38:24;2.85;;;1.52;;
7571;SDS011;3827;49.928;8.548;2023-04-03T10:40:59;2.40;;;1.52;;
7571;SDS011;3827;49.928;8.548;2023-04-03T10:43:36;2.38;;;1.55;;
7571;SDS011;3827;49.928;8.548;2023-04-03T10:46:08;2.45;;;1.50;;
7571;SDS011;3827;49.928;8.548;2023-04-03T10:48:44;3.78;;;1.90;;
7571;SDS011;3827;49.928;8.548;2023-04-03T10:51:21;3.47;;;1.60;;
7571;SDS011;3827;49.928;8.548;2023-04-03T10:53:52;2.45;;;1.42;;
7571;SDS011;3827;49.928;8.548;2023-04-03T10:56:25;2.50;;;1.47;;
7571;SDS011;3827;49.928;8.548;2023-04-03T10:58:58;3.38;;;1.60;;
7571;SDS011;3827;49.928;8.548;2023-04-03T11:01:33;2.92;;;1.67;;
7571;SDS011;3827;49.928;8.548;2023-04-03T11:04:03;2.88;;;1.50;;
7571;SDS011;3827;49.928;8.548;2023-04-03T11:06:33;3.25;;;1.52;;
7571;SDS011;3827;49.928;8.548;2023-04-03T11:09:07;3.28;;;1.60;;
7571;SDS011;3827;49.928;8.548;2023-04-03T11:11:43;2.00;;;1.58;;
7571;SDS011;3827;49.928;8.548;2023-04-03T11:14:14;1.98;;;1.52;;
7571;SDS011;3827;49.928;8.548;2023-04-03T11:16:48;2.53;;;1.60;;
7571;SDS011;3827;49.928;8.548;2023-04-03T11:19:22;3.97;;;1.42;;
7571;SDS011;3827;49.928;8.548;2023-04-03T11:21:57;2.53;;;1.45;;
7571;SDS011;3827;49.928;8.548;2023-04-03T11:24:29;3.63;;;1.70;;
7571;SDS011;3827;49.928;8.548;2023-04-03T11:26:59;2.45;;;1.40;;
7571;SDS011;3827;49.928;8.548;2023-04-03T11:29:31;4.50;;;1.92;;
7571;SDS011;3827;49.928;8.548;2023-04-03T11:32:08;4.50;;;1.80;;
7571;SDS011;3827;49.928;8.548;2023-04-03T11:34:42;3.13;;;1.55;;
7571;SDS011;3827;49.928;8.548;2023-04-03T11:37:13;2.00;;;1.40;;
7571;SDS011;3827;49.928;8.548;2023-04-03T11:39:47;2.33;;;1.38;;
7571;SDS011;3827;49.928;8.548;2023-04-03T11:42:23;3.08;;;1.50;;
7571;SDS011;3827;49.928;8.548;2023-04-03T11:47:54;2.20;;;1.50;;
7571;SDS011;3827;49.928;8.548;2023-04-03T11:50:39;1.98;;;1.30;;
7571;SDS011;3827;49.928;8.548;2023-04-03T11:55:57;2.05;;;1.67;;
7571;SDS011;3827;49.928;8.548;2023-04-03T11:58:26;2.83;;;1.30;;
7571;SDS011;3827;49.928;8.548;2023-04-03T12:00:55;2.53;;;1.40;;
7571;SDS011;3827;49.928;8.548;2023-04-03T12:09:31;2.78;;;1.17;;
7571;SDS011;3827;49.928;8.548;2023-04-03T12:12:24;2.63;;;1.30;;
7571;SDS011;3827;49.928;8.548;2023-04-03T12:15:16;2.33;;;1.50;;
7571;SDS011;3827;49.928;8.548;2023-04-03T12:17:49;3.47;;;1.30;;
7571;SDS011;3827;49.928;8.548;2023-04-03T12:26:32;2.60;;;1.40;;
7571;SDS011;3827;49.928;8.548;2023-04-03T12:29:10;1.33;;;1.20;;
7571;SDS011;3827;49.928;8.548;2023-04-03T12:34:46;1.20;;;1.10;;
7571;SDS011;3827;49.928;8.548;2023-04-03T12:37:24;1.63;;;1.27;;
7571;SDS011;3827;49.928;8.548;2023-04-03T12:40:09;1.50;;;1.10;;
7571;SDS011;3827;49.928;8.548;2023-04-03T12:42:47;2.17;;;1.40;;
7571;SDS011;3827;49.928;8.548;2023-04-03T12:45:29;3.33;;;1.30;;
7571;SDS011;3827;49.928;8.548;2023-04-03T12:48:08;1.88;;;1.35;;
7571;SDS011;3827;49.928;8.548;2023-04-03T12:50:41;3.97;;;1.27;;
7571;SDS011;3827;49.928;8.548;2023-04-03T12:53:12;1.88;;;1.35;;
7571;SDS011;3827;49.928;8.548;2023-04-03T12:55:43;2.38;;;1.30;;
7571;SDS011;3827;49.928;8.548;2023-04-03T12:58:14;1.80;;;1.20;;
7571;SDS011;3827;49.928;8.548;2023-04-03T13:00:43;2.05;;;1.17;;
7571;SDS011;3827;49.928;8.548;2023-04-03T13:03:19;1.77;;;1.17;;
7571;SDS011;3827;49.928;8.548;2023-04-03T13:05:49;1.83;;;1.35;;
7571;SDS011;3827;49.928;8.548;2023-04-03T13:08:16;2.60;;;1.52;;
7571;SDS011;3827;49.928;8.548;2023-04-03T13:10:49;2.15;;;1.27;;
7571;SDS011;3827;49.928;8.548;2023-04-03T13:13:20;2.17;;;1.50;;
7571;SDS011;3827;49.928;8.548;2023-04-03T13:15:48;2.30;;;1.45;;
7571;SDS011;3827;49.928;8.548;2023-04-03T13:18:23;1.60;;;1.35;;
7571;SDS011;3827;49.928;8.548;2023-04-03T13:20:51;2.38;;;1.42;;
7571;SDS011;3827;49.928;8.548;2023-04-03T13:23:19;1.63;;;1.40;;
7571;SDS011;3827;49.928;8.548;2023-04-03T13:25:49;3.72;;;1.60;;
7571;SDS011;3827;49.928;8.548;2023-04-03T13:28:18;2.70;;;1.50;;
7571;SDS011;3827;49.928;8.548;2023-04-03T13:30:54;3.72;;;1.35;;
7571;SDS011;3827;49.928;8.548;2023-04-03T13:33:28;2.70;;;1.50;;
7571;SDS011;3827;49.928;8.548;2023-04-03T13:35:58;3.17;;;1.45;;
7571;SDS011;3827;49.928;8.548;2023-04-03T13:38:28;3.25;;;1.70;;
7571;SDS011;3827;49.928;8.548;2023-04-03T13:41:00;1.90;;;1.30;;
7571;SDS011;3827;49.928;8.548;2023-04-03T13:43:30;2.20;;;1.30;;
7571;SDS011;3827;49.928;8.548;2023-04-03T13:46:05;3.03;;;1.60;;
7571;SDS011;3827;49.928;8.548;2023-04-03T13:48:50;3.45;;;1.55;;
7571;SDS011;3827;49.928;8.548;2023-04-03T13:51:18;2.63;;;1.50;;
7571;SDS011;3827;49.928;8.548;2023-04-03T13:53:49;2.00;;;1.42;;
7571;SDS011;3827;49.928;8.548;2023-04-03T13:56:21;1.58;;;1.40;;
7571;SDS011;3827;49.928;8.548;2023-04-03T13:58:56;2.10;;;1.33;;
7571;SDS011;3827;49.928;8.548;2023-04-03T14:01:34;2.25;;;1.50;;
7571;SDS011;3827;49.928;8.548;2023-04-03T14:04:11;2.47;;;1.60;;
7571;SDS011;3827;49.928;8.548;2023-04-03T14:06:42;2.35;;;1.50;;
7571;SDS011;3827;49.928;8.548;2023-04-03T14:09:09;2.65;;;1.70;;
7571;SDS011;3827;49.928;8.548;2023-04-03T14:11:37;3.90;;;2.22;;
7571;SDS011;3827;49.928;8.548;2023-04-03T14:14:05;2.65;;;1.40;;
7571;SDS011;3827;49.928;8.548;2023-04-03T14:16:39;2.00;;;1.35;;
7571;SDS011;3827;49.928;8.548;2023-04-03T14:19:09;3.40;;;1.67;;
7571;SDS011;3827;49.928;8.548;2023-04-03T14:21:43;2.50;;;1.63;;
7571;SDS011;3827;49.928;8.548;2023-04-03T14:24:10;2.15;;;1.50;;
7571;SDS011;3827;49.928;8.548;2023-04-03T14:26:38;1.88;;;1.50;;
7571;SDS011;3827;49.928;8.548;2023-04-03T14:29:06;1.97;;;1.53;;
7571;SDS011;3827;49.928;8.548;2023-04-03T14:31:33;3.08;;;1.90;;
7571;SDS011;3827;49.928;8.548;2023-04-03T14:34:00;2.55;;;1.90;;
7571;SDS011;3827;49.928;8.548;2023-04-03T14:36:27;2.60;;;1.90;;
7571;SDS011;3827;49.928;8.548;2023-04-03T14:38:55;3.43;;;2.37;;
7571;SDS011;3827;49.928;8.548;2023-04-03T14:41:23;2.95;;;2.00;;
7571;SDS011;3827;49.928;8.548;2023-04-03T14:43:53;3.40;;;2.10;;
7571;SDS011;3827;49.928;8.548;2023-04-03T14:46:22;2.85;;;2.17;;
7571;SDS011;3827;49.928;8.548;2023-04-03T14:48:52;4.10;;;2.35;;
7571;SDS011;3827;49.928;8.548;2023-04-03T14:51:19;4.35;;;2.53;;
7571;SDS011;3827;49.928;8.548;2023-04-03T14:53:46;4.28;;;2.50;;
7571;SDS011;3827;49.928;8.548;2023-04-03T14:56:15;3.30;;;2.37;;
7571;SDS011;3827;49.928;8.548;2023-04-03T14:58:46;3.45;;;2.15;;
7571;SDS011;3827;49.928;8.548;2023-04-03T15:01:17;3.75;;;2.40;;
7571;SDS011;3827;49.928;8.548;2023-04-03T15:03:44;6.03;;;2.42;;
7571;SDS011;3827;49.928;8.548;2023-04-03T15:06:10;3.28;;;2.22;;
7571;SDS011;3827;49.928;8.548;2023-04-03T15:08:39;3.55;;;2.15;;
7571;SDS011;3827;49.928;8.548;2023-04-03T15:11:07;2.33;;;1.95;;
7571;SDS011;3827;49.928;8.548;2023-04-03T15:13:35;2.92;;;1.98;;
7571;SDS011;3827;49.928;8.548;2023-04-03T15:16:01;2.60;;;1.80;;
7571;SDS011;3827;49.928;8.548;2023-04-03T15:18:31;3.00;;;1.70;;
7571;SDS011;3827;49.928;8.548;2023-04-03T15:21:03;2.60;;;1.80;;
7571;SDS011;3827;49.928;8.548;2023-04-03T15:23:30;1.90;;;1.70;;
7571;SDS011;3827;49.928;8.548;2023-04-03T15:25:56;3.00;;;1.88;;
7571;SDS011;3827;49.928;8.548;2023-04-03T15:28:25;2.30;;;1.65;;
7571;SDS011;3827;49.928;8.548;2023-04-03T15:30:55;2.13;;;1.33;;
7571;SDS011;3827;49.928;8.548;2023-04-03T15:33:22;2.03;;;1.60;;
7571;SDS011;3827;49.928;8.548;2023-04-03T15:35:51;3.05;;;1.52;;
7571;SDS011;3827;49.928;8.548;2023-04-03T15:38:17;4.07;;;1.60;;
7571;SDS011;3827;49.928;8.548;2023-04-03T15:40:44;2.70;;;1.70;;
7571;SDS011;3827;49.928;8.548;2023-04-03T15:43:12;3.25;;;1.65;;
7571;SDS011;3827;49.928;8.548;2023-04-03T15:45:40;2.15;;;1.95;;
7571;SDS011;3827;49.928;8.548;2023-04-03T15:48:08;2.85;;;2.22;;
7571;SDS011;3827;49.928;8.548;2023-04-03T15:50:35;2.50;;;1.50;;
7571;SDS011;3827;49.928;8.548;2023-04-03T15:53:04;2.08;;;1.55;;